createdAt,value
2018-12-10T00:03:13.672Z,93.00
2018-12-10T00:06:21.372Z,93.00
2018-12-10T00:09:29.343Z,93.10
2018-12-10T00:12:47.901Z,93.10
2018-12-10T00:15:55.508Z,92.80
2018-12-10T00:19:13.103Z,92.80
2018-12-10T00:22:20.776Z,92.80
2018-12-10T00:25:28.388Z,92.70
2018-12-10T00:28:35.916Z,92.70
2018-12-10T00:35:02.029Z,92.70
2018-12-10T00:38:13.094Z,92.90
2018-12-10T00:41:23.950Z,92.90
2018-12-10T00:44:33.312Z,92.80
2018-12-10T00:47:53.868Z,92.80
2018-12-10T00:51:03.049Z,92.60
2018-12-10T00:54:20.648Z,92.20
2018-12-10T00:57:38.223Z,92.20
2018-12-10T01:00:45.725Z,92.10
2018-12-10T01:03:53.500Z,91.90
2018-12-10T01:07:00.996Z,92.00
2018-12-10T01:10:09.636Z,91.90
2018-12-10T01:13:17.098Z,91.70
2018-12-10T01:16:35.180Z,91.50
2018-12-10T01:19:42.736Z,91.60
2018-12-10T01:22:50.248Z,91.70
2018-12-10T01:29:13.471Z,91.60
2018-12-10T01:32:30.960Z,91.60
2018-12-10T01:35:48.495Z,92.10
2018-12-10T01:39:08.072Z,91.80
2018-12-10T01:42:15.557Z,91.90
2018-12-10T01:45:23.042Z,92.20
2018-12-10T01:48:30.540Z,91.90
2018-12-10T01:51:48.160Z,92.20
2018-12-10T01:55:06.827Z,92.60
2018-12-10T01:58:14.315Z,92.70
2018-12-10T02:01:31.876Z,92.80
2018-12-10T02:04:49.817Z,92.90
2018-12-10T02:08:07.471Z,93.10
2018-12-10T02:11:24.905Z,93.30
2018-12-10T02:14:42.472Z,93.20
2018-12-10T02:17:59.932Z,93.40
2018-12-10T02:21:17.481Z,93.70
2018-12-10T02:24:34.936Z,93.30
2018-12-10T02:27:52.462Z,93.10
2018-12-10T02:31:09.789Z,93.30
2018-12-10T02:34:27.628Z,93.50
2018-12-10T02:37:35.149Z,93.50
2018-12-10T02:40:42.626Z,94.20
2018-12-10T02:43:50.118Z,93.90
2018-12-10T02:46:57.598Z,93.80
2018-12-10T02:50:15.132Z,93.40
2018-12-10T02:53:32.613Z,93.30
2018-12-10T02:56:50.089Z,93.70
2018-12-10T03:00:08.497Z,93.50
2018-12-10T03:03:16.056Z,93.20
2018-12-10T03:06:23.633Z,93.70
2018-12-10T03:09:31.772Z,94.50
2018-12-10T03:12:39.384Z,94.60
2018-12-10T03:15:46.941Z,95.10
2018-12-10T03:18:54.470Z,95.20
2018-12-10T03:22:02.348Z,95.10
2018-12-10T03:25:09.833Z,95.30
2018-12-10T03:28:27.602Z,95.50
2018-12-10T03:31:35.078Z,95.40
2018-12-10T03:34:42.795Z,95.30
2018-12-10T03:37:50.251Z,95.20
2018-12-10T03:40:57.979Z,95.20
2018-12-10T03:44:15.337Z,95.40
2018-12-10T03:47:32.817Z,95.30
2018-12-10T03:50:50.200Z,95.10
2018-12-10T03:54:07.668Z,95.20
2018-12-10T03:57:25.103Z,94.90
2018-12-10T04:00:42.610Z,94.90
2018-12-10T04:04:00.096Z,94.60
2018-12-10T04:07:17.515Z,94.50
2018-12-10T04:10:34.956Z,94.30
2018-12-10T04:13:52.423Z,94.50
2018-12-10T04:17:10.426Z,94.40
2018-12-10T04:20:18.236Z,94.20
2018-12-10T04:23:25.711Z,94.20
2018-12-10T04:29:48.876Z,94.00
2018-12-10T04:33:06.365Z,94.10
2018-12-10T04:36:23.765Z,94.10
2018-12-10T04:39:41.357Z,94.10
2018-12-10T04:42:58.660Z,94.30
2018-12-10T04:46:16.141Z,94.00
2018-12-10T04:49:33.634Z,94.10
2018-12-10T04:52:51.019Z,93.90
2018-12-10T04:56:08.496Z,93.60
2018-12-10T04:59:26.011Z,93.70
2018-12-10T05:02:43.415Z,93.70
2018-12-10T05:06:00.843Z,93.40
2018-12-10T05:09:18.285Z,93.20
2018-12-10T05:12:35.891Z,93.00
2018-12-10T05:15:53.286Z,93.00
2018-12-10T05:19:10.864Z,92.60
2018-12-10T05:22:28.148Z,92.20
2018-12-10T05:25:45.660Z,92.40
2018-12-10T05:29:03.211Z,92.50
2018-12-10T05:32:20.555Z,92.20
2018-12-10T05:35:38.019Z,92.00
2018-12-10T05:38:45.372Z,92.00
2018-12-10T05:41:52.936Z,92.20
2018-12-10T05:45:00.444Z,92.10
2018-12-10T05:48:08.383Z,92.20
2018-12-10T05:51:25.955Z,92.20
2018-12-10T05:54:43.305Z,92.40
2018-12-10T05:58:00.787Z,92.20
2018-12-10T06:01:18.228Z,91.30
2018-12-10T06:04:35.765Z,90.90
2018-12-10T06:07:53.210Z,91.00
2018-12-10T06:11:10.608Z,91.00
2018-12-10T06:14:28.040Z,91.10
2018-12-10T06:17:45.610Z,91.00
2018-12-10T06:21:02.995Z,91.00
2018-12-10T06:24:20.431Z,91.00
2018-12-10T06:27:37.852Z,91.40
2018-12-10T06:30:55.309Z,91.30
2018-12-10T06:34:12.836Z,91.20
2018-12-10T06:37:37.367Z,91.00
2018-12-10T06:40:39.743Z,90.60
2018-12-10T06:43:47.205Z,90.40
2018-12-10T06:46:54.688Z,90.00
2018-12-10T06:50:12.463Z,90.20
2018-12-10T06:53:29.990Z,90.30
2018-12-10T06:56:47.415Z,90.30
2018-12-10T07:00:07.227Z,90.30
2018-12-10T07:03:14.714Z,90.70
2018-12-10T07:06:22.184Z,90.90
2018-12-10T07:09:29.663Z,90.70
2018-12-10T07:12:47.216Z,90.70
2018-12-10T07:16:04.633Z,91.10
2018-12-10T07:19:22.187Z,92.00
2018-12-10T07:22:39.577Z,91.90
2018-12-10T07:25:56.992Z,91.90
2018-12-10T07:29:14.465Z,92.50
2018-12-10T07:32:31.900Z,92.00
2018-12-10T07:35:49.392Z,92.30
2018-12-10T07:39:08.398Z,92.40
2018-12-10T07:42:16.266Z,91.90
2018-12-10T07:45:23.825Z,91.70
2018-12-10T07:48:31.729Z,91.40
2018-12-10T07:51:49.235Z,91.50
2018-12-10T07:55:07.598Z,90.90
2018-12-10T07:58:15.437Z,91.00
2018-12-10T08:01:32.936Z,91.60
2018-12-10T08:04:50.427Z,91.20
2018-12-10T08:08:08.380Z,91.10
2018-12-10T08:11:15.932Z,90.80
2018-12-10T08:14:23.424Z,90.80
2018-12-10T08:17:30.856Z,90.50
2018-12-10T08:20:38.325Z,90.30
2018-12-10T08:23:55.796Z,90.00
2018-12-10T08:27:13.365Z,89.80
2018-12-10T08:30:30.676Z,90.10
2018-12-10T08:33:48.183Z,89.70
2018-12-10T08:37:05.591Z,89.60
2018-12-10T08:40:25.939Z,89.00
2018-12-10T08:43:43.761Z,89.00
2018-12-10T08:47:01.427Z,89.10
2018-12-10T08:50:10.052Z,88.10
2018-12-10T08:53:27.443Z,89.00
2018-12-10T08:56:45.035Z,89.70
2018-12-10T09:00:02.894Z,89.80
2018-12-10T09:03:10.436Z,90.20
2018-12-10T09:06:17.927Z,90.10
2018-12-10T09:09:25.414Z,89.60
2018-12-10T09:12:33.330Z,89.00
2018-12-10T09:15:40.824Z,89.30
2018-12-10T09:18:48.299Z,88.60
2018-12-10T09:21:55.764Z,88.70
2018-12-10T09:25:03.712Z,87.60
2018-12-10T09:28:19.293Z,86.80
2018-12-10T09:31:31.137Z,86.60
2018-12-10T09:34:48.544Z,89.30
2018-12-10T09:38:05.955Z,88.70
2018-12-10T09:41:23.527Z,89.60
2018-12-10T09:44:40.933Z,90.00
2018-12-10T09:47:58.785Z,90.10
2018-12-10T09:51:06.243Z,90.60
2018-12-10T09:54:13.764Z,90.60
2018-12-10T09:57:21.269Z,90.70
2018-12-10T10:00:28.721Z,91.00
2018-12-10T10:03:46.144Z,91.30
2018-12-10T10:07:03.703Z,91.40
2018-12-10T10:10:21.184Z,91.60
2018-12-10T10:13:39.009Z,91.60
2018-12-10T10:16:46.515Z,91.10
2018-12-10T10:19:54.084Z,91.40
2018-12-10T10:23:01.584Z,91.30
2018-12-10T10:26:09.369Z,91.10
2018-12-10T10:29:16.912Z,91.20
2018-12-10T10:32:24.471Z,91.30
2018-12-10T10:35:31.988Z,90.80
2018-12-10T10:38:50.438Z,91.10
2018-12-10T10:41:57.918Z,91.00
2018-12-10T10:45:07.823Z,90.80
2018-12-10T10:48:15.362Z,91.50
2018-12-10T10:51:22.824Z,92.20
2018-12-10T10:54:30.380Z,91.60
2018-12-10T10:57:37.850Z,91.80
2018-12-10T11:01:00.464Z,91.80
2018-12-10T11:04:10.590Z,92.00
2018-12-10T11:07:18.462Z,92.40
2018-12-10T11:10:26.027Z,92.90
2018-12-10T11:13:33.559Z,92.90
2018-12-10T11:16:51.169Z,92.60
2018-12-10T11:20:10.488Z,91.80
2018-12-10T11:23:28.013Z,92.20
2018-12-10T11:26:45.455Z,92.00
2018-12-10T11:30:02.994Z,92.50
2018-12-10T11:33:20.496Z,91.40
2018-12-10T11:36:38.564Z,90.00
2018-12-10T11:39:56.101Z,90.30
2018-12-10T11:43:13.633Z,91.30
2018-12-10T11:46:31.099Z,91.80
2018-12-10T11:49:48.526Z,92.50
2018-12-10T11:53:06.512Z,92.70
2018-12-10T11:56:14.020Z,93.10
2018-12-10T11:59:21.939Z,93.30
2018-12-10T12:02:39.564Z,93.70
2018-12-10T12:05:56.919Z,93.00
2018-12-10T12:09:06.587Z,92.60
2018-12-10T12:12:14.103Z,91.90
2018-12-10T12:15:21.643Z,91.30
2018-12-10T12:18:40.048Z,91.60
2018-12-10T12:21:47.584Z,91.80
2018-12-10T12:24:55.086Z,91.80
2018-12-10T12:28:12.591Z,91.90
2018-12-10T12:31:30.394Z,91.50
2018-12-10T12:34:39.767Z,91.80
2018-12-10T12:37:47.319Z,92.00
2018-12-10T12:40:54.901Z,91.80
2018-12-10T12:44:12.406Z,91.60
2018-12-10T12:47:29.856Z,92.10
2018-12-10T12:50:47.446Z,92.20
2018-12-10T12:53:54.971Z,92.40
2018-12-10T12:57:02.500Z,92.40
2018-12-10T13:00:10.946Z,92.30
2018-12-10T13:03:18.591Z,92.70
2018-12-10T13:06:26.107Z,93.40
2018-12-10T13:09:34.175Z,94.40
2018-12-10T13:12:41.707Z,94.80
2018-12-10T13:15:49.283Z,95.30
2018-12-10T13:18:56.804Z,95.40
2018-12-10T13:22:04.205Z,95.50
2018-12-10T13:25:21.614Z,95.50
2018-12-10T13:28:39.017Z,95.30
2018-12-10T13:31:56.613Z,95.20
2018-12-10T13:35:14.605Z,95.40
2018-12-10T13:38:22.132Z,95.00
2018-12-10T13:41:29.724Z,95.00
2018-12-10T13:44:37.224Z,95.10
2018-12-10T13:47:54.672Z,94.80
2018-12-10T13:51:12.059Z,94.40
2018-12-10T13:54:29.496Z,94.80
2018-12-10T13:57:47.059Z,94.70
2018-12-10T14:01:04.519Z,94.50
2018-12-10T14:04:27.500Z,95.00
2018-12-10T14:07:35.645Z,94.70
2018-12-10T14:10:52.957Z,94.70
2018-12-10T14:14:10.418Z,94.30
2018-12-10T14:17:28.093Z,94.20
2018-12-10T14:20:36.480Z,93.80
2018-12-10T14:23:43.999Z,94.10
2018-12-10T14:27:01.803Z,94.40
2018-12-10T14:30:10.313Z,94.40
2018-12-10T14:33:18.259Z,94.60
2018-12-10T14:36:26.932Z,94.90
2018-12-10T14:39:33.949Z,94.90
2018-12-10T14:42:54.843Z,94.80
2018-12-10T14:46:12.406Z,94.70
2018-12-10T14:49:29.927Z,94.60
2018-12-10T14:52:47.445Z,94.80
2018-12-10T14:56:05.246Z,95.00
2018-12-10T14:59:12.820Z,95.10
2018-12-10T15:02:20.380Z,95.30
2018-12-10T15:05:27.887Z,95.00
2018-12-10T15:08:45.548Z,94.80
2018-12-10T15:12:03.032Z,94.70
2018-12-10T15:15:20.469Z,94.30
2018-12-10T15:18:37.904Z,95.00
2018-12-10T15:21:55.452Z,95.50
2018-12-10T15:25:13.390Z,95.40
2018-12-10T15:28:20.977Z,95.50
2018-12-10T15:31:28.543Z,95.20
2018-12-10T15:34:36.069Z,95.10
2018-12-10T15:37:53.500Z,95.20
2018-12-10T15:41:01.180Z,95.00
2018-12-10T15:44:08.804Z,95.10
2018-12-10T15:47:16.280Z,95.30
2018-12-10T15:50:23.807Z,95.50
2018-12-10T15:53:41.423Z,95.40
2018-12-10T15:56:58.868Z,95.70
2018-12-10T16:00:16.310Z,96.00
2018-12-10T16:03:33.758Z,96.10
2018-12-10T16:06:51.128Z,96.20
2018-12-10T16:10:10.185Z,96.30
2018-12-10T16:13:27.767Z,96.30
2018-12-10T16:16:45.566Z,96.10
2018-12-10T16:19:53.091Z,96.00
2018-12-10T16:23:00.719Z,96.00
2018-12-10T16:26:08.322Z,95.80
2018-12-10T16:29:25.822Z,95.60
2018-12-10T16:32:43.736Z,95.70
2018-12-10T16:35:52.199Z,95.40
2018-12-10T16:39:00.487Z,95.20
2018-12-10T16:42:08.093Z,95.40
2018-12-10T16:45:25.525Z,95.30
2018-12-10T16:48:42.885Z,95.40
2018-12-10T16:52:01.092Z,95.30
2018-12-10T16:55:09.716Z,95.30
2018-12-10T16:58:17.244Z,95.40
2018-12-10T17:01:24.797Z,95.40
2018-12-10T17:04:32.308Z,95.40
2018-12-10T17:07:39.996Z,95.00
2018-12-10T17:10:47.517Z,95.00
2018-12-10T17:13:56.261Z,94.90
2018-12-10T17:17:03.712Z,94.90
2018-12-10T17:20:12.239Z,94.90
2018-12-10T17:23:20.044Z,94.60
2018-12-10T17:26:27.563Z,94.30
2018-12-10T17:29:45.096Z,94.20
2018-12-10T17:33:02.504Z,93.90
2018-12-10T17:36:20.880Z,93.60
2018-12-10T17:39:28.340Z,93.60
2018-12-10T17:42:36.075Z,93.60
2018-12-10T17:45:43.572Z,93.60
2018-12-10T17:48:51.201Z,93.70
2018-12-10T17:51:58.780Z,93.70
2018-12-10T17:55:07.742Z,93.80
2018-12-10T17:58:15.272Z,93.90
2018-12-10T18:01:24.677Z,94.20
2018-12-10T18:04:32.172Z,94.10
2018-12-10T18:07:39.732Z,94.20
2018-12-10T18:10:47.224Z,94.20
2018-12-10T18:14:04.640Z,94.40
2018-12-10T18:17:22.089Z,94.50
2018-12-10T18:20:39.520Z,94.50
2018-12-10T18:23:57.081Z,94.80
2018-12-10T18:27:14.488Z,94.60
2018-12-10T18:30:32.758Z,94.50
2018-12-10T18:33:40.769Z,94.40
2018-12-10T18:36:58.272Z,94.60
2018-12-10T18:40:09.749Z,94.90
2018-12-10T18:43:17.769Z,95.00
2018-12-10T18:46:25.284Z,94.70
2018-12-10T18:49:32.845Z,94.90
2018-12-10T18:52:40.639Z,94.90
2018-12-10T18:55:58.082Z,94.80
2018-12-10T18:59:15.526Z,94.90
2018-12-10T19:02:33.063Z,94.80
2018-12-10T19:05:50.504Z,94.80
2018-12-10T19:09:09.488Z,94.60
2018-12-10T19:12:28.565Z,94.70
2018-12-10T19:15:36.113Z,94.50
2018-12-10T19:18:53.860Z,94.40
2018-12-10T19:22:11.307Z,94.40
2018-12-10T19:25:28.699Z,94.50
2018-12-10T19:28:46.144Z,94.90
2018-12-10T19:32:03.667Z,94.50
2018-12-10T19:35:21.111Z,94.50
2018-12-10T19:38:38.578Z,94.20
2018-12-10T19:41:56.063Z,93.90
2018-12-10T19:45:13.945Z,93.90
2018-12-10T19:48:21.728Z,94.00
2018-12-10T19:51:29.278Z,94.00
2018-12-10T19:54:36.914Z,94.10
2018-12-10T19:57:44.409Z,94.10
2018-12-10T20:00:51.884Z,93.90
2018-12-10T20:03:59.704Z,94.10
2018-12-10T20:07:08.365Z,94.10
2018-12-10T20:10:16.348Z,94.00
2018-12-10T20:13:23.843Z,94.00
2018-12-10T20:16:31.317Z,94.10
2018-12-10T20:19:38.837Z,94.00
2018-12-10T20:22:46.303Z,94.10
2018-12-10T20:26:03.775Z,94.10
2018-12-10T20:29:21.312Z,94.20
2018-12-10T20:32:38.696Z,94.10
2018-12-10T20:35:56.154Z,93.90
2018-12-10T20:39:13.679Z,94.00
2018-12-10T20:42:31.093Z,93.90
2018-12-10T20:45:48.547Z,93.90
2018-12-10T20:49:06.483Z,93.90
2018-12-10T20:52:14.487Z,93.90
2018-12-10T20:55:22.504Z,94.00
2018-12-10T20:58:29.993Z,93.90
2018-12-10T21:01:37.477Z,93.80
2018-12-10T21:04:44.948Z,93.90
2018-12-10T21:07:52.999Z,94.00
2018-12-10T21:11:00.501Z,94.30
2018-12-10T21:14:08.503Z,94.20
2018-12-10T21:17:16.764Z,94.40
2018-12-10T21:20:24.321Z,94.40
2018-12-10T21:23:41.887Z,94.60
2018-12-10T21:26:59.674Z,94.90
2018-12-10T21:30:08.589Z,94.60
2018-12-10T21:33:16.098Z,94.50
2018-12-10T21:36:23.576Z,94.50
2018-12-10T21:39:31.109Z,94.40
2018-12-10T21:42:49.361Z,94.30
2018-12-10T21:45:57.377Z,94.10
2018-12-10T21:49:15.012Z,94.10
2018-12-10T21:52:41.707Z,94.00
2018-12-10T21:59:05.972Z,93.90
2018-12-10T22:02:13.849Z,94.00
2018-12-10T22:05:21.532Z,93.90
2018-12-10T22:08:29.156Z,93.90
2018-12-10T22:11:36.687Z,93.90
2018-12-10T22:14:44.164Z,94.00
2018-12-10T22:18:01.575Z,93.90
2018-12-10T22:21:19.122Z,93.80
2018-12-10T22:24:36.472Z,93.90
2018-12-10T22:27:53.965Z,93.80
2018-12-10T22:31:11.520Z,93.80
2018-12-10T22:34:28.928Z,93.70
2018-12-10T22:37:46.475Z,93.80
2018-12-10T22:41:04.012Z,93.70
2018-12-10T22:44:21.372Z,93.70
2018-12-10T22:47:38.872Z,93.60
2018-12-10T22:50:56.613Z,93.70
2018-12-10T22:54:04.176Z,93.50
2018-12-10T22:57:12.323Z,93.60
2018-12-10T23:00:35.744Z,93.90
2018-12-10T23:03:43.192Z,93.70
2018-12-10T23:06:50.680Z,93.70
2018-12-10T23:10:09.529Z,93.90
2018-12-10T23:13:17.487Z,93.90
2018-12-10T23:16:35.820Z,93.90
2018-12-10T23:19:43.792Z,93.90
2018-12-10T23:22:51.316Z,94.00
2018-12-10T23:25:58.783Z,93.80
2018-12-10T23:29:06.400Z,93.80
2018-12-10T23:32:13.915Z,93.70
2018-12-10T23:35:31.674Z,93.60
2018-12-10T23:38:39.239Z,93.60
2018-12-10T23:41:46.947Z,93.40
2018-12-10T23:44:55.961Z,93.50
2018-12-10T23:48:03.821Z,93.40
2018-12-10T23:51:11.452Z,93.40
2018-12-10T23:54:18.983Z,93.40
2018-12-10T23:57:27.191Z,93.40
